createdAt,value
2018-04-20T00:00:48.301Z,0
2018-04-20T00:01:48.271Z,0
2018-04-20T00:02:48.515Z,0
2018-04-20T00:03:48.481Z,0
2018-04-20T00:04:48.220Z,0
2018-04-20T00:05:48.196Z,0
2018-04-20T00:06:48.177Z,0
2018-04-20T00:07:48.152Z,0
2018-04-20T00:08:48.386Z,0
2018-04-20T00:09:48.374Z,0
2018-04-20T00:10:48.089Z,0
2018-04-20T00:11:48.336Z,0
2018-04-20T00:12:48.312Z,0
2018-04-20T00:13:47.785Z,0
2018-04-20T00:14:48.258Z,0
2018-04-20T00:15:47.741Z,0
2018-04-20T00:16:47.975Z,0
2018-04-20T00:17:48.204Z,0
2018-04-20T00:18:47.934Z,0
2018-04-20T00:19:48.162Z,0
2018-04-20T00:20:47.891Z,0
2018-04-20T00:21:47.620Z,0
2018-04-20T00:22:47.848Z,0
2018-04-20T00:23:48.072Z,0
2018-04-20T00:24:48.066Z,0
2018-04-20T00:25:48.035Z,0
2018-04-20T00:26:48.021Z,0
2018-04-20T00:27:47.745Z,0
2018-04-20T00:28:48.164Z,0
2018-04-20T00:29:47.960Z,0
2018-04-20T00:30:47.932Z,0
2018-04-20T00:31:47.927Z,0
2018-04-20T00:32:47.649Z,0
2018-04-20T00:33:47.632Z,0
2018-04-20T00:34:47.796Z,0
2018-04-20T00:35:47.588Z,0
2018-04-20T00:36:47.316Z,0
2018-04-20T00:37:47.800Z,0
2018-04-20T00:38:47.778Z,0
2018-04-20T00:39:47.762Z,0
2018-04-20T00:40:47.485Z,0
2018-04-20T00:41:47.462Z,0
2018-04-20T00:42:47.441Z,0
2018-04-20T00:43:47.425Z,0
2018-04-20T00:44:47.405Z,0
2018-04-20T00:45:47.385Z,0
2018-04-20T00:46:47.368Z,0
2018-04-20T00:47:47.347Z,0
2018-04-20T00:48:47.084Z,0
2018-04-20T00:49:47.557Z,0
2018-04-20T00:50:47.286Z,0
2018-04-20T00:51:47.568Z,0
2018-04-20T00:52:47.492Z,0
2018-04-20T00:53:47.471Z,0
2018-04-20T00:54:47.206Z,0
2018-04-20T00:55:46.937Z,0
2018-04-20T00:56:47.416Z,0
2018-04-20T00:57:47.397Z,0
2018-04-20T00:58:47.376Z,0
2018-04-20T00:59:47.349Z,0
2018-04-20T01:00:47.280Z,0
2018-04-20T01:01:47.309Z,0
2018-04-20T01:02:47.295Z,0
2018-04-20T01:03:47.017Z,0
2018-04-20T01:04:46.998Z,0
2018-04-20T01:05:46.980Z,0
2018-04-20T01:06:47.203Z,0
2018-04-20T01:07:46.944Z,0
2018-04-20T01:08:46.924Z,0
2018-04-20T01:09:47.148Z,0
2018-04-20T01:10:47.137Z,0
2018-04-20T01:11:46.868Z,0
2018-04-20T01:12:46.591Z,0
2018-04-20T01:13:46.838Z,0
2018-04-20T01:14:47.059Z,0
2018-04-20T01:15:46.536Z,0
2018-04-20T01:16:47.008Z,0
2018-04-20T01:17:46.987Z,0
2018-04-20T01:18:46.970Z,0
2018-04-20T01:19:46.455Z,0
2018-04-20T01:20:46.934Z,0
2018-04-20T01:21:46.909Z,0
2018-04-20T01:22:46.640Z,0
2018-04-20T01:23:46.865Z,0
2018-04-20T01:24:46.848Z,0
2018-04-20T01:25:46.861Z,0
2018-04-20T01:26:46.815Z,0
2018-04-20T01:27:46.037Z,0
2018-04-20T01:28:46.766Z,0
2018-04-20T01:29:46.499Z,0
2018-04-20T01:30:46.243Z,0
2018-04-20T01:31:46.452Z,0
2018-04-20T01:32:46.182Z,0
2018-04-20T01:33:46.429Z,0
2018-04-20T01:34:46.643Z,0
2018-04-20T01:35:46.635Z,0
2018-04-20T01:36:46.610Z,0
2018-04-20T01:37:46.346Z,0
2018-04-20T01:38:46.571Z,0
2018-04-20T01:39:46.043Z,0
2018-04-20T01:40:46.275Z,0
2018-04-20T01:41:46.269Z,0
2018-04-20T01:42:45.987Z,0
2018-04-20T01:43:46.468Z,0
2018-04-20T01:44:46.441Z,0
2018-04-20T01:45:46.184Z,0
2018-04-20T01:46:45.905Z,0
2018-04-20T01:47:46.380Z,0
2018-04-20T01:48:46.394Z,0
2018-04-20T01:49:46.346Z,0
2018-04-20T01:50:46.076Z,0
2018-04-20T01:51:46.301Z,0
2018-04-20T01:52:46.035Z,0
2018-04-20T01:53:46.016Z,0
2018-04-20T01:54:45.742Z,0
2018-04-20T01:55:45.891Z,0
2018-04-20T01:56:45.701Z,0
2018-04-20T01:57:45.682Z,0
2018-04-20T01:58:46.165Z,0
2018-04-20T01:59:46.252Z,0
2018-04-20T02:00:46.161Z,0
2018-04-20T02:01:46.099Z,0
2018-04-20T02:02:46.075Z,0
2018-04-20T02:03:45.815Z,0
2018-04-20T02:04:46.035Z,0
2018-04-20T02:05:45.774Z,0
2018-04-20T02:06:45.996Z,0
2018-04-20T02:07:45.964Z,0
2018-04-20T02:08:45.449Z,0
2018-04-20T02:09:45.935Z,0
2018-04-20T02:10:45.910Z,0
2018-04-20T02:11:45.401Z,0
2018-04-20T02:12:45.863Z,0
2018-04-20T02:13:45.606Z,0
2018-04-20T02:14:46.262Z,0
2018-04-20T02:15:45.954Z,0
2018-04-20T02:16:45.047Z,0
2018-04-20T02:17:45.768Z,0
2018-04-20T02:18:45.758Z,0
2018-04-20T02:19:45.228Z,0
2018-04-20T02:20:45.710Z,0
2018-04-20T02:21:45.686Z,0
2018-04-20T02:22:45.675Z,0
2018-04-20T02:23:45.650Z,0
2018-04-20T02:24:45.627Z,0
2018-04-20T02:25:45.355Z,0
2018-04-20T02:26:45.335Z,0
2018-04-20T02:27:45.313Z,0
2018-04-20T02:28:45.041Z,0
2018-04-20T02:29:45.530Z,0
2018-04-20T02:30:45.500Z,0
2018-04-20T02:31:45.501Z,0
2018-04-20T02:32:45.477Z,0
2018-04-20T02:33:45.437Z,0
2018-04-20T02:34:45.424Z,0
2018-04-20T02:35:45.150Z,0
2018-04-20T02:36:45.140Z,0
2018-04-20T02:37:44.610Z,0
2018-04-20T02:38:45.106Z,0
2018-04-20T02:39:44.583Z,0
2018-04-20T02:40:45.047Z,0
2018-04-20T02:41:45.279Z,0
2018-04-20T02:42:45.009Z,0
2018-04-20T02:43:44.985Z,0
2018-04-20T02:44:44.973Z,0
2018-04-20T02:45:45.201Z,0
2018-04-20T02:46:45.179Z,0
2018-04-20T02:47:45.147Z,0
2018-04-20T02:48:45.133Z,0
2018-04-20T02:49:44.618Z,0
2018-04-20T02:50:45.115Z,0
2018-04-20T02:51:45.078Z,0
2018-04-20T02:52:45.051Z,0
2018-04-20T02:53:44.284Z,0
2018-04-20T02:54:44.779Z,0
2018-04-20T02:55:44.737Z,0
2018-04-20T02:56:44.991Z,0
2018-04-20T02:57:44.721Z,0
2018-04-20T02:58:44.925Z,0
2018-04-20T02:59:44.903Z,0
2018-04-20T03:00:44.661Z,0
2018-04-20T03:01:44.617Z,0
2018-04-20T03:02:44.840Z,0
2018-04-20T03:03:44.815Z,0
2018-04-20T03:04:44.549Z,0
2018-04-20T03:05:44.547Z,0
2018-04-20T03:06:44.503Z,0
2018-04-20T03:07:44.739Z,0
2018-04-20T03:08:44.729Z,0
2018-04-20T03:09:44.698Z,0
2018-04-20T03:10:44.923Z,0
2018-04-20T03:11:44.650Z,0
2018-04-20T03:12:44.413Z,0
2018-04-20T03:13:44.606Z,0
2018-04-20T03:14:44.593Z,0
2018-04-20T03:15:44.568Z,0
2018-04-20T03:16:44.311Z,0
2018-04-20T03:17:44.528Z,0
2018-04-20T03:18:44.516Z,0
2018-04-20T03:19:44.232Z,0
2018-04-20T03:20:44.461Z,0
2018-04-20T03:21:44.440Z,0
2018-04-20T03:22:44.437Z,0
2018-04-20T03:23:43.901Z,0
2018-04-20T03:24:43.885Z,0
2018-04-20T03:25:43.876Z,0
2018-04-20T03:26:44.338Z,0
2018-04-20T03:27:43.826Z,0
2018-04-20T03:28:44.306Z,0
2018-04-20T03:29:44.276Z,0
2018-04-20T03:30:44.272Z,0
2018-04-20T03:31:44.239Z,0
2018-04-20T03:32:44.215Z,0
2018-04-20T03:33:43.949Z,0
2018-04-20T03:34:44.178Z,0
2018-04-20T03:35:44.157Z,0
2018-04-20T03:36:43.633Z,0
2018-04-20T03:37:44.114Z,0
2018-04-20T03:38:44.104Z,0
2018-04-20T03:39:44.067Z,0
2018-04-20T03:40:44.056Z,0
2018-04-20T03:41:44.043Z,0
2018-04-20T03:42:44.016Z,0
2018-04-20T03:43:43.745Z,0
2018-04-20T03:44:43.966Z,0
2018-04-20T03:45:43.702Z,0
2018-04-20T03:46:43.929Z,0
2018-04-20T03:47:43.907Z,0
2018-04-20T03:48:43.888Z,0
2018-04-20T03:49:43.618Z,0
2018-04-20T03:50:43.604Z,0
2018-04-20T03:51:43.329Z,0
2018-04-20T03:52:43.554Z,0
2018-04-20T03:53:43.780Z,0
2018-04-20T03:54:43.754Z,0
2018-04-20T03:55:43.750Z,0
2018-04-20T03:56:43.722Z,0
2018-04-20T03:57:43.451Z,0
2018-04-20T03:58:43.186Z,0
2018-04-20T03:59:43.669Z,0
2018-04-20T04:00:43.640Z,0
2018-04-20T04:01:43.629Z,0
2018-04-20T04:02:43.606Z,0
2018-04-20T04:03:43.083Z,0
2018-04-20T04:04:43.319Z,0
2018-04-20T04:05:43.042Z,0
2018-04-20T04:06:43.515Z,0
2018-04-20T04:07:43.247Z,0
2018-04-20T04:08:43.486Z,0
2018-04-20T04:09:43.206Z,0
2018-04-20T04:10:43.192Z,0
2018-04-20T04:11:43.415Z,0
2018-04-20T04:12:43.593Z,5
2018-04-20T04:13:42.872Z,5
2018-04-20T04:14:43.358Z,5
2018-04-20T04:15:43.496Z,5
2018-04-20T04:16:43.305Z,5
2018-04-20T04:17:43.055Z,5
2018-04-20T04:18:43.282Z,10
2018-04-20T04:19:43.243Z,10
2018-04-20T04:20:42.728Z,10
2018-04-20T04:21:43.205Z,10
2018-04-20T04:22:42.947Z,10
2018-04-20T04:23:42.666Z,15
2018-04-20T04:24:42.767Z,15
2018-04-20T04:25:43.128Z,15
2018-04-20T04:26:42.856Z,20
2018-04-20T04:27:42.837Z,20
2018-04-20T04:28:42.812Z,20
2018-04-20T04:29:43.057Z,25
2018-04-20T04:30:42.772Z,25
2018-04-20T04:31:42.998Z,25
2018-04-20T04:32:42.980Z,30
2018-04-20T04:33:42.960Z,30
2018-04-20T04:34:42.944Z,35
2018-04-20T04:35:42.909Z,35
2018-04-20T04:36:42.894Z,35
2018-04-20T04:37:42.875Z,40
2018-04-20T04:38:42.861Z,40
2018-04-20T04:39:42.843Z,45
2018-04-20T04:40:42.818Z,50
2018-04-20T04:41:42.792Z,50
2018-04-20T04:42:42.777Z,55
2018-04-20T04:43:42.537Z,55
2018-04-20T04:44:42.734Z,60
2018-04-20T04:45:42.725Z,60
2018-04-20T04:46:42.694Z,65
2018-04-20T04:47:42.668Z,65
2018-04-20T04:48:42.367Z,70
2018-04-20T04:49:42.952Z,70
2018-04-20T04:50:43.560Z,75
2018-04-20T04:51:42.736Z,75
2018-04-20T04:52:42.327Z,80
2018-04-20T04:53:42.313Z,80
2018-04-20T04:54:42.532Z,85
2018-04-20T04:55:42.256Z,85
2018-04-20T04:56:42.240Z,90
2018-04-20T04:57:42.464Z,90
2018-04-20T04:58:41.961Z,95
2018-04-20T04:59:42.185Z,95
2018-04-20T05:00:42.414Z,100
2018-04-20T05:01:42.381Z,100
2018-04-20T05:02:42.112Z,105
2018-04-20T05:03:42.217Z,110
2018-04-20T05:04:41.585Z,110
2018-04-20T05:05:42.305Z,115
2018-04-20T05:06:41.786Z,120
2018-04-20T05:07:42.012Z,120
2018-04-20T05:08:42.239Z,125
2018-04-20T05:09:41.974Z,130
2018-04-20T05:10:41.948Z,135
2018-04-20T05:11:41.933Z,135
2018-04-20T05:12:42.155Z,140
2018-04-20T05:13:42.142Z,145
2018-04-20T05:14:42.114Z,145
2018-04-20T05:15:42.103Z,145
2018-04-20T05:16:41.831Z,150
2018-04-20T05:17:42.061Z,155
2018-04-20T05:18:41.794Z,155
2018-04-20T05:19:42.030Z,160
2018-04-20T05:20:41.996Z,165
2018-04-20T05:21:41.737Z,170
2018-04-20T05:22:41.591Z,170
2018-04-20T05:23:41.689Z,175
2018-04-20T05:24:41.426Z,180
2018-04-20T05:25:41.650Z,185
2018-04-20T05:26:41.879Z,185
2018-04-20T05:27:41.861Z,190
2018-04-20T05:28:41.848Z,195
2018-04-20T05:29:41.569Z,195
2018-04-20T05:30:41.315Z,200
2018-04-20T05:31:41.332Z,205
2018-04-20T05:32:41.770Z,205
2018-04-20T05:33:41.492Z,210
2018-04-20T05:34:41.229Z,215
2018-04-20T05:35:41.705Z,215
2018-04-20T05:36:41.694Z,220
2018-04-20T05:37:41.669Z,225
2018-04-20T05:38:41.401Z,225
2018-04-20T05:39:41.387Z,230
2018-04-20T05:40:41.149Z,235
2018-04-20T05:41:41.583Z,235
2018-04-20T05:42:41.326Z,240
2018-04-20T05:43:41.305Z,240
2018-04-20T05:44:41.295Z,245
2018-04-20T05:45:41.512Z,250
2018-04-20T05:46:41.549Z,255
2018-04-20T05:47:40.976Z,260
2018-04-20T05:48:41.220Z,260
2018-04-20T05:49:41.439Z,265
2018-04-20T05:50:40.929Z,270
2018-04-20T05:51:41.154Z,270
2018-04-20T05:52:41.201Z,280
2018-04-20T05:53:40.863Z,275
2018-04-20T05:54:41.360Z,280
2018-04-20T05:55:41.081Z,285
2018-04-20T05:56:41.067Z,285
2018-04-20T05:57:41.049Z,290
2018-04-20T05:58:40.771Z,295
2018-04-20T05:59:41.013Z,295
2018-04-20T06:00:40.993Z,300
2018-04-20T06:01:41.228Z,300
2018-04-20T06:02:41.203Z,305
2018-04-20T06:03:41.182Z,305
2018-04-20T06:04:41.161Z,310
2018-04-20T06:05:41.142Z,315
2018-04-20T06:06:40.626Z,320
2018-04-20T06:07:40.865Z,320
2018-04-20T06:08:41.328Z,325
2018-04-20T06:09:41.082Z,330
2018-04-20T06:10:40.807Z,330
2018-04-20T06:11:41.040Z,340
2018-04-20T06:12:40.280Z,345
2018-04-20T06:13:40.549Z,345
2018-04-20T06:14:40.007Z,350
2018-04-20T06:15:40.996Z,365
2018-04-20T06:16:41.780Z,465
2018-04-20T06:17:40.996Z,585
2018-04-20T06:18:41.689Z,635
2018-04-20T06:19:40.500Z,660
2018-04-20T06:20:40.938Z,660
2018-04-20T06:21:40.668Z,685
2018-04-20T06:22:40.591Z,680
2018-04-20T06:23:40.622Z,700
2018-04-20T06:24:40.554Z,700
2018-04-20T06:25:40.798Z,695
2018-04-20T06:26:40.769Z,690
2018-04-20T06:27:40.748Z,700
2018-04-20T06:28:40.859Z,710
2018-04-20T06:29:40.222Z,695
2018-04-20T06:30:40.709Z,695
2018-04-20T06:31:40.688Z,645
2018-04-20T06:32:40.173Z,685
2018-04-20T06:33:40.405Z,725
2018-04-20T06:34:40.386Z,745
2018-04-20T06:35:40.384Z,760
2018-04-20T06:36:40.358Z,770
2018-04-20T06:37:40.096Z,775
2018-04-20T06:38:40.572Z,795
2018-04-20T06:39:40.563Z,800
2018-04-20T06:40:40.292Z,800
2018-04-20T06:41:40.360Z,785
2018-04-20T06:42:40.515Z,785
2018-04-20T06:43:40.502Z,815
2018-04-20T06:44:40.487Z,775
2018-04-20T06:45:40.234Z,600
2018-04-20T06:46:40.453Z,450
2018-04-20T06:47:40.000Z,430
2018-04-20T06:48:40.437Z,435
2018-04-20T06:49:39.922Z,435
2018-04-20T06:50:40.195Z,445
2018-04-20T06:51:39.976Z,515
2018-04-20T06:52:40.120Z,690
2018-04-20T06:53:39.863Z,815
2018-04-20T06:54:40.355Z,875
2018-04-20T06:55:40.096Z,890
2018-04-20T06:56:39.818Z,920
2018-04-20T06:57:40.057Z,915
2018-04-20T06:58:40.341Z,935
2018-04-20T06:59:39.781Z,965
2018-04-20T07:00:40.016Z,965
2018-04-20T07:01:39.508Z,985
2018-04-20T07:02:40.242Z,1000
2018-04-20T07:03:39.476Z,980
2018-04-20T07:04:40.208Z,1005
2018-04-20T07:05:40.620Z,1030
2018-04-20T07:06:39.702Z,1040
2018-04-20T07:07:39.934Z,1035
2018-04-20T07:08:39.952Z,1020
2018-04-20T07:09:39.899Z,840
2018-04-20T07:10:39.649Z,630
2018-04-20T07:11:39.877Z,530
2018-04-20T07:12:40.051Z,530
2018-04-20T07:13:40.191Z,540
2018-04-20T07:14:39.841Z,565
2018-04-20T07:15:39.841Z,690
2018-04-20T07:16:42.107Z,870
2018-04-20T07:17:42.948Z,995
2018-04-20T07:18:40.042Z,1070
2018-04-20T07:19:40.035Z,1090
2018-04-20T07:20:39.511Z,1085
2018-04-20T07:21:40.920Z,1170
2018-04-20T07:22:39.768Z,1190
2018-04-20T07:23:39.988Z,1170
2018-04-20T07:24:39.720Z,1005
2018-04-20T07:25:39.212Z,900
2018-04-20T07:26:39.834Z,1045
2018-04-20T07:27:39.935Z,1170
2018-04-20T07:28:39.861Z,1120
2018-04-20T07:29:39.661Z,1035
2018-04-20T07:30:39.900Z,1030
2018-04-20T07:31:39.903Z,1030
2018-04-20T07:32:39.608Z,855
2018-04-20T07:33:42.096Z,695
2018-04-20T07:34:39.875Z,850
2018-04-20T07:35:39.619Z,1025
2018-04-20T07:36:39.348Z,1065
2018-04-20T07:37:39.577Z,1080
2018-04-20T07:38:39.816Z,1050
2018-04-20T07:39:39.822Z,1000
2018-04-20T07:40:39.554Z,865
2018-04-20T07:41:40.103Z,775
2018-04-20T07:42:39.785Z,800
2018-04-20T07:43:40.017Z,845
2018-04-20T07:44:42.751Z,810
2018-04-20T07:45:42.456Z,795
2018-04-20T07:46:39.525Z,845
2018-04-20T07:47:39.736Z,910
2018-04-20T07:48:39.721Z,825
2018-04-20T07:49:39.461Z,840
2018-04-20T07:50:39.697Z,1010
2018-04-20T07:51:39.694Z,1110
2018-04-20T07:52:39.438Z,1115
2018-04-20T07:53:39.725Z,1190
2018-04-20T07:54:39.671Z,1210
2018-04-20T07:55:39.416Z,940
2018-04-20T07:56:39.647Z,725
2018-04-20T07:57:41.447Z,880
2018-04-20T07:58:41.856Z,1115
2018-04-20T07:59:40.153Z,1210
2018-04-20T08:00:40.681Z,1200
2018-04-20T08:01:40.609Z,1135
2018-04-20T08:02:41.274Z,1135
2018-04-20T08:03:41.883Z,1185
2018-04-20T08:04:41.116Z,1240
2018-04-20T08:05:40.457Z,1245
2018-04-20T08:06:39.076Z,1240
2018-04-20T08:07:39.559Z,1235
2018-04-20T08:08:39.299Z,1220
2018-04-20T08:09:39.061Z,1225
2018-04-20T08:10:39.555Z,1205
2018-04-20T08:11:39.614Z,1210
2018-04-20T08:12:39.334Z,1110
2018-04-20T08:13:39.563Z,995
2018-04-20T08:14:39.507Z,885
2018-04-20T08:15:39.252Z,770
2018-04-20T08:16:39.484Z,680
2018-04-20T08:17:39.285Z,635
2018-04-20T08:18:39.682Z,615
2018-04-20T08:19:39.533Z,620
2018-04-20T08:20:39.219Z,610
2018-04-20T08:21:39.486Z,605
2018-04-20T08:22:39.233Z,605
2018-04-20T08:23:39.373Z,605
2018-04-20T08:24:39.190Z,605
2018-04-20T08:25:39.356Z,615
2018-04-20T08:26:39.564Z,635
2018-04-20T08:27:38.898Z,735
2018-04-20T08:28:39.392Z,1040
2018-04-20T08:29:39.126Z,1265
2018-04-20T08:30:39.376Z,1290
2018-04-20T08:31:38.860Z,1290
2018-04-20T08:32:39.337Z,1325
2018-04-20T08:33:39.095Z,1325
2018-04-20T08:34:39.083Z,1345
2018-04-20T08:35:39.368Z,1430
2018-04-20T08:36:39.308Z,1475
2018-04-20T08:37:38.799Z,1490
2018-04-20T08:38:39.292Z,1475
2018-04-20T08:39:38.791Z,1510
2018-04-20T08:40:39.272Z,1495
2018-04-20T08:41:39.408Z,1465
2018-04-20T08:42:39.306Z,1475
2018-04-20T08:43:38.994Z,1530
2018-04-20T08:44:39.245Z,1545
2018-04-20T08:45:39.234Z,1545
2018-04-20T08:46:38.974Z,1585
2018-04-20T08:47:39.218Z,1580
2018-04-20T08:48:39.224Z,1585
2018-04-20T08:49:39.200Z,1600
2018-04-20T08:50:39.510Z,1585
2018-04-20T08:51:39.183Z,1580
2018-04-20T08:52:38.432Z,1575
2018-04-20T08:53:39.171Z,1645
2018-04-20T08:54:38.669Z,1585
2018-04-20T08:55:38.670Z,1430
2018-04-20T08:56:39.150Z,1315
2018-04-20T08:57:39.151Z,1210
2018-04-20T08:58:39.135Z,1110
2018-04-20T08:59:39.136Z,970
2018-04-20T09:00:39.121Z,860
2018-04-20T09:01:38.863Z,765
2018-04-20T09:02:39.117Z,695
2018-04-20T09:03:38.857Z,670
2018-04-20T09:04:38.842Z,650
2018-04-20T09:05:38.840Z,640
2018-04-20T09:06:38.827Z,635
2018-04-20T09:07:38.567Z,625
2018-04-20T09:08:38.833Z,615
2018-04-20T09:09:39.070Z,620
2018-04-20T09:10:39.042Z,605
2018-04-20T09:11:39.044Z,600
2018-04-20T09:12:39.032Z,595
2018-04-20T09:13:39.455Z,595
2018-04-20T09:14:39.169Z,595
2018-04-20T09:15:39.139Z,590
2018-04-20T09:16:38.995Z,590
2018-04-20T09:17:38.686Z,585
2018-04-20T09:18:39.254Z,585
2018-04-20T09:19:39.180Z,585
2018-04-20T09:20:39.024Z,585
2018-04-20T09:21:39.040Z,585
2018-04-20T09:22:38.950Z,585
2018-04-20T09:23:38.925Z,585
2018-04-20T09:24:39.899Z,585
2018-04-20T09:25:38.662Z,585
2018-04-20T09:26:38.890Z,585
2018-04-20T09:27:38.877Z,585
2018-04-20T09:28:38.709Z,585
2018-04-20T09:29:38.868Z,585
2018-04-20T09:30:38.856Z,585
2018-04-20T09:31:38.847Z,585
2018-04-20T09:32:38.828Z,585
2018-04-20T09:33:38.607Z,590
2018-04-20T09:34:38.564Z,590
2018-04-20T09:35:40.058Z,590
2018-04-20T09:36:38.647Z,590
2018-04-20T09:37:38.538Z,590
2018-04-20T09:38:38.772Z,590
2018-04-20T09:39:38.515Z,590
2018-04-20T09:40:38.502Z,590
2018-04-20T09:41:38.741Z,590
2018-04-20T09:42:38.738Z,590
2018-04-20T09:43:38.721Z,585
2018-04-20T09:44:38.466Z,590
2018-04-20T09:45:38.284Z,590
2018-04-20T09:46:38.447Z,590
2018-04-20T09:47:38.678Z,600
2018-04-20T09:48:38.697Z,590
2018-04-20T09:49:39.623Z,590
2018-04-20T09:50:38.698Z,595
2018-04-20T09:51:38.659Z,595
2018-04-20T09:52:38.625Z,595
2018-04-20T09:53:38.677Z,595
2018-04-20T09:54:38.674Z,595
2018-04-20T09:55:38.128Z,600
2018-04-20T09:56:38.582Z,600
2018-04-20T09:57:38.081Z,600
2018-04-20T09:58:38.371Z,600
2018-04-20T09:59:38.309Z,600
2018-04-20T10:00:38.329Z,600
2018-04-20T10:01:38.283Z,600
2018-04-20T10:02:38.522Z,600
2018-04-20T10:03:38.252Z,600
2018-04-20T10:04:38.250Z,600
2018-04-20T10:05:38.194Z,595
2018-04-20T10:06:38.497Z,595
2018-04-20T10:07:37.740Z,595
2018-04-20T10:08:37.968Z,595
2018-04-20T10:09:38.453Z,595
2018-04-20T10:10:38.438Z,595
2018-04-20T10:11:39.887Z,590
2018-04-20T10:12:39.083Z,590
2018-04-20T10:13:38.472Z,590
2018-04-20T10:14:38.397Z,595
2018-04-20T10:15:38.373Z,590
2018-04-20T10:16:38.404Z,590
2018-04-20T10:17:38.445Z,590
2018-04-20T10:18:39.032Z,590
2018-04-20T10:19:38.096Z,590
2018-04-20T10:20:38.080Z,595
2018-04-20T10:21:38.058Z,590
2018-04-20T10:22:38.066Z,590
2018-04-20T10:23:37.797Z,590
2018-04-20T10:24:38.278Z,590
2018-04-20T10:25:38.269Z,590
2018-04-20T10:26:37.584Z,590
2018-04-20T10:27:37.758Z,590
2018-04-20T10:28:37.993Z,590
2018-04-20T10:29:38.229Z,600
2018-04-20T10:30:37.721Z,600
2018-04-20T10:31:37.711Z,595
2018-04-20T10:32:37.699Z,595
2018-04-20T10:33:38.288Z,595
2018-04-20T10:34:37.923Z,595
2018-04-20T10:35:37.666Z,595
2018-04-20T10:36:38.152Z,595
2018-04-20T10:37:37.899Z,595
2018-04-20T10:38:38.130Z,595
2018-04-20T10:39:38.131Z,600
2018-04-20T10:40:39.082Z,595
2018-04-20T10:41:37.606Z,605
2018-04-20T10:42:38.084Z,600
2018-04-20T10:43:37.583Z,600
2018-04-20T10:44:37.820Z,600
2018-04-20T10:45:38.028Z,600
2018-04-20T10:46:38.050Z,600
2018-04-20T10:47:38.045Z,595
2018-04-20T10:48:38.298Z,600
2018-04-20T10:49:37.781Z,600
2018-04-20T10:50:38.007Z,600
2018-04-20T10:51:37.750Z,600
2018-04-20T10:52:37.246Z,600
2018-04-20T10:53:37.721Z,600
2018-04-20T10:54:37.712Z,600
2018-04-20T10:55:37.457Z,605
2018-04-20T10:56:37.538Z,605
2018-04-20T10:57:37.692Z,605
2018-04-20T10:58:37.675Z,605
2018-04-20T10:59:37.917Z,610
2018-04-20T11:00:37.673Z,605
2018-04-20T11:01:37.894Z,605
2018-04-20T11:02:37.886Z,605
2018-04-20T11:03:38.496Z,610
2018-04-20T11:04:37.862Z,615
2018-04-20T11:05:37.602Z,610
2018-04-20T11:06:37.592Z,610
2018-04-20T11:07:37.843Z,610
2018-04-20T11:08:37.482Z,610
2018-04-20T11:09:37.813Z,610
2018-04-20T11:10:37.555Z,610
2018-04-20T11:11:38.116Z,610
2018-04-20T11:12:37.552Z,610
2018-04-20T11:13:37.769Z,605
2018-04-20T11:14:37.273Z,605
2018-04-20T11:15:37.505Z,605
2018-04-20T11:16:37.488Z,605
2018-04-20T11:17:37.477Z,610
2018-04-20T11:18:37.480Z,610
2018-04-20T11:19:37.464Z,610
2018-04-20T11:20:37.206Z,610
2018-04-20T11:21:37.452Z,615
2018-04-20T11:22:37.692Z,610
2018-04-20T11:23:37.442Z,610
2018-04-20T11:24:37.160Z,610
2018-04-20T11:25:36.901Z,615
2018-04-20T11:26:37.145Z,610
2018-04-20T11:27:37.390Z,610
2018-04-20T11:28:37.619Z,610
2018-04-20T11:29:37.364Z,615
2018-04-20T11:30:37.163Z,615
2018-04-20T11:31:37.359Z,615
2018-04-20T11:32:37.085Z,615
2018-04-20T11:33:37.330Z,615
2018-04-20T11:34:37.315Z,615
2018-04-20T11:35:37.304Z,615
2018-04-20T11:36:37.570Z,615
2018-04-20T11:37:37.538Z,615
2018-04-20T11:38:37.265Z,615
2018-04-20T11:39:37.024Z,615
2018-04-20T11:40:37.008Z,615
2018-04-20T11:41:37.249Z,610
2018-04-20T11:42:37.239Z,610
2018-04-20T11:43:37.225Z,605
2018-04-20T11:44:36.719Z,605
2018-04-20T11:45:37.449Z,605
2018-04-20T11:46:37.192Z,600
2018-04-20T11:47:37.575Z,605
2018-04-20T11:48:37.421Z,600
2018-04-20T11:49:37.420Z,600
2018-04-20T11:50:37.166Z,605
2018-04-20T11:51:37.405Z,600
2018-04-20T11:52:37.389Z,595
2018-04-20T11:53:36.880Z,595
2018-04-20T11:54:37.118Z,595
2018-04-20T11:55:37.109Z,595
2018-04-20T11:56:37.359Z,600
2018-04-20T11:57:37.338Z,600
2018-04-20T11:58:37.077Z,605
2018-04-20T11:59:36.784Z,615
2018-04-20T12:00:36.809Z,615
2018-04-20T12:01:36.803Z,615
2018-04-20T12:02:36.549Z,615
2018-04-20T12:03:37.280Z,610
2018-04-20T12:04:37.271Z,610
2018-04-20T12:05:37.263Z,615
2018-04-20T12:06:37.106Z,610
2018-04-20T12:07:37.241Z,615
2018-04-20T12:08:37.233Z,615
2018-04-20T12:09:37.240Z,620
2018-04-20T12:10:37.216Z,620
2018-04-20T12:11:36.956Z,625
2018-04-20T12:12:37.207Z,625
2018-04-20T12:13:39.465Z,625
2018-04-20T12:14:37.431Z,625
2018-04-20T12:15:37.115Z,625
2018-04-20T12:16:36.956Z,620
2018-04-20T12:17:37.162Z,620
2018-04-20T12:18:36.931Z,620
2018-04-20T12:19:37.129Z,620
2018-04-20T12:20:37.121Z,620
2018-04-20T12:21:36.858Z,620
2018-04-20T12:22:36.915Z,620
2018-04-20T12:23:36.859Z,615
2018-04-20T12:24:36.838Z,615
2018-04-20T12:25:36.579Z,615
2018-04-20T12:26:36.318Z,615
2018-04-20T12:27:36.684Z,615
2018-04-20T12:28:36.554Z,615
2018-04-20T12:29:36.805Z,615
2018-04-20T12:30:36.529Z,615
2018-04-20T12:31:37.226Z,615
2018-04-20T12:32:37.002Z,615
2018-04-20T12:33:37.200Z,615
2018-04-20T12:34:36.755Z,615
2018-04-20T12:35:37.023Z,615
2018-04-20T12:36:36.738Z,620
2018-04-20T12:37:36.936Z,620
2018-04-20T12:38:36.711Z,620
2018-04-20T12:39:36.973Z,620
2018-04-20T12:40:36.938Z,620
2018-04-20T12:41:36.932Z,620
2018-04-20T12:42:36.921Z,625
2018-04-20T12:43:36.421Z,620
2018-04-20T12:44:36.678Z,620
2018-04-20T12:45:36.748Z,620
2018-04-20T12:46:36.887Z,620
2018-04-20T12:47:37.071Z,620
2018-04-20T12:48:36.361Z,625
2018-04-20T12:49:36.614Z,620
2018-04-20T12:50:36.344Z,620
2018-04-20T12:51:36.344Z,625
2018-04-20T12:52:36.835Z,625
2018-04-20T12:53:36.573Z,625
2018-04-20T12:54:36.558Z,630
2018-04-20T12:55:36.582Z,630
2018-04-20T12:56:36.050Z,630
2018-04-20T12:57:36.594Z,630
2018-04-20T12:58:36.776Z,635
2018-04-20T12:59:36.764Z,630
2018-04-20T13:00:36.757Z,635
2018-04-20T13:01:36.745Z,630
2018-04-20T13:02:36.737Z,635
2018-04-20T13:03:36.731Z,635
2018-04-20T13:04:36.227Z,635
2018-04-20T13:05:36.715Z,635
2018-04-20T13:06:35.958Z,640
2018-04-20T13:07:36.697Z,640
2018-04-20T13:08:36.191Z,640
2018-04-20T13:09:36.686Z,640
2018-04-20T13:10:36.416Z,645
2018-04-20T13:11:36.414Z,645
2018-04-20T13:12:36.645Z,645
2018-04-20T13:13:36.398Z,645
2018-04-20T13:14:36.389Z,650
2018-04-20T13:15:36.377Z,645
2018-04-20T13:16:36.370Z,645
2018-04-20T13:17:36.607Z,640
2018-04-20T13:18:36.742Z,640
2018-04-20T13:19:36.338Z,635
2018-04-20T13:20:36.590Z,645
2018-04-20T13:21:36.575Z,635
2018-04-20T13:22:36.562Z,630
2018-04-20T13:23:36.062Z,630
2018-04-20T13:24:36.296Z,625
2018-04-20T13:25:36.058Z,625
2018-04-20T13:26:36.275Z,625
2018-04-20T13:27:36.522Z,625
2018-04-20T13:28:36.270Z,625
2018-04-20T13:29:36.504Z,620
2018-04-20T13:30:36.259Z,620
2018-04-20T13:31:36.491Z,620
2018-04-20T13:32:35.974Z,620
2018-04-20T13:33:36.224Z,620
2018-04-20T13:34:36.259Z,625
2018-04-20T13:35:36.217Z,620
2018-04-20T13:36:36.077Z,620
2018-04-20T13:37:36.427Z,620
2018-04-20T13:38:36.475Z,620
2018-04-20T13:39:35.929Z,630
2018-04-20T13:40:36.408Z,620
2018-04-20T13:41:36.152Z,615
2018-04-20T13:42:36.149Z,615
2018-04-20T13:43:36.127Z,620
2018-04-20T13:44:35.887Z,615
2018-04-20T13:45:36.363Z,615
2018-04-20T13:46:36.155Z,610
2018-04-20T13:47:35.844Z,610
2018-04-20T13:48:36.084Z,610
2018-04-20T13:49:36.389Z,610
2018-04-20T13:50:36.311Z,605
2018-04-20T13:51:36.311Z,605
2018-04-20T13:52:36.292Z,605
2018-04-20T13:53:36.303Z,605
2018-04-20T13:54:36.932Z,605
2018-04-20T13:55:36.017Z,600
2018-04-20T13:56:35.808Z,600
2018-04-20T13:57:35.664Z,605
2018-04-20T13:58:35.787Z,605
2018-04-20T13:59:36.020Z,605
2018-04-20T14:00:35.733Z,605
2018-04-20T14:01:35.747Z,605
2018-04-20T14:02:36.214Z,605